createdAt,value
2018-10-18T00:01:29.723Z,34.47
2018-10-18T00:03:57.898Z,34.97
2018-10-18T00:06:26.075Z,38.53
2018-10-18T00:08:54.261Z,37.30
2018-10-18T00:11:22.447Z,34.43
2018-10-18T00:13:50.643Z,37.47
2018-10-18T00:16:18.819Z,37.07
2018-10-18T00:18:47.028Z,36.73
2018-10-18T00:21:15.219Z,36.50
2018-10-18T00:23:43.391Z,37.13
2018-10-18T00:26:11.640Z,36.77
2018-10-18T00:28:39.744Z,35.80
2018-10-18T00:31:07.903Z,35.27
2018-10-18T00:33:36.103Z,35.23
2018-10-18T00:36:04.705Z,35.13
2018-10-18T00:38:32.822Z,35.67
2018-10-18T00:41:00.988Z,33.60
2018-10-18T00:43:29.146Z,34.87
2018-10-18T00:45:57.333Z,37.40
2018-10-18T00:48:25.506Z,34.73
2018-10-18T00:50:53.710Z,40.03
2018-10-18T00:53:21.872Z,38.73
2018-10-18T00:55:50.084Z,38.03
2018-10-18T00:58:18.281Z,38.50
2018-10-18T01:00:46.467Z,36.20
2018-10-18T01:03:14.649Z,39.27
2018-10-18T01:05:42.783Z,41.07
2018-10-18T01:08:11.035Z,40.70
2018-10-18T01:10:39.447Z,36.47
2018-10-18T01:13:07.640Z,34.63
2018-10-18T01:15:35.778Z,38.63
2018-10-18T01:18:04.000Z,37.97
2018-10-18T01:20:32.124Z,40.90
2018-10-18T01:23:00.301Z,40.07
2018-10-18T01:25:28.549Z,39.53
2018-10-18T01:27:56.730Z,36.17
2018-10-18T01:30:24.999Z,39.00
2018-10-18T01:32:53.154Z,37.77
2018-10-18T01:35:21.390Z,38.77
2018-10-18T01:37:49.623Z,42.57
2018-10-18T01:40:17.795Z,39.63
2018-10-18T01:42:45.991Z,38.63
2018-10-18T01:45:14.173Z,35.63
2018-10-18T01:47:42.328Z,39.57
2018-10-18T01:50:10.841Z,37.37
2018-10-18T01:52:38.948Z,35.47
2018-10-18T01:55:07.808Z,36.00
2018-10-18T01:57:36.023Z,36.20
2018-10-18T02:00:04.742Z,32.23
2018-10-18T02:02:33.264Z,37.67
2018-10-18T02:05:01.452Z,36.00
2018-10-18T02:07:29.676Z,34.37
2018-10-18T02:09:57.831Z,35.73
2018-10-18T02:12:26.125Z,34.57
2018-10-18T02:14:54.360Z,38.13
2018-10-18T02:17:22.539Z,36.80
2018-10-18T02:19:50.715Z,34.77
2018-10-18T02:22:18.887Z,38.07
2018-10-18T02:24:47.063Z,38.67
2018-10-18T02:27:15.268Z,38.07
2018-10-18T02:29:43.472Z,39.90
2018-10-18T02:32:11.632Z,40.10
2018-10-18T02:34:39.775Z,42.67
2018-10-18T02:37:08.020Z,41.73
2018-10-18T02:39:36.257Z,41.77
2018-10-18T02:42:04.556Z,47.53
2018-10-18T02:44:32.647Z,42.47
2018-10-18T02:47:00.832Z,47.17
2018-10-18T02:49:29.039Z,39.17
2018-10-18T02:51:57.254Z,45.47
2018-10-18T02:54:25.440Z,46.33
2018-10-18T02:56:53.648Z,45.33
2018-10-18T02:59:21.835Z,52.73
2018-10-18T03:01:50.015Z,49.27
2018-10-18T03:04:18.223Z,51.37
2018-10-18T03:06:46.380Z,46.87
2018-10-18T03:09:14.595Z,50.57
2018-10-18T03:11:42.764Z,52.80
2018-10-18T03:14:10.968Z,52.67
2018-10-18T03:16:39.151Z,53.47
2018-10-18T03:19:07.309Z,52.07
2018-10-18T03:21:35.495Z,52.07
2018-10-18T03:24:03.688Z,51.93
2018-10-18T03:26:31.836Z,47.53
2018-10-18T03:29:00.039Z,45.10
2018-10-18T03:31:28.248Z,46.60
2018-10-18T03:33:56.393Z,47.83
2018-10-18T03:36:24.595Z,44.80
2018-10-18T03:38:52.767Z,48.40
2018-10-18T03:41:21.025Z,45.07
2018-10-18T03:43:49.194Z,46.23
2018-10-18T03:46:17.368Z,45.63
2018-10-18T03:48:45.617Z,46.70
2018-10-18T03:51:13.843Z,47.07
2018-10-18T03:53:42.132Z,43.57
2018-10-18T03:56:10.334Z,44.50
2018-10-18T03:58:38.519Z,43.13
2018-10-18T04:01:06.743Z,42.27
2018-10-18T04:03:34.923Z,43.40
2018-10-18T04:06:03.215Z,41.97
2018-10-18T04:08:31.325Z,39.83
2018-10-18T04:10:59.511Z,40.53
2018-10-18T04:13:27.719Z,41.50
2018-10-18T04:15:55.955Z,41.73
2018-10-18T04:18:24.218Z,42.50
2018-10-18T04:20:52.332Z,40.87
2018-10-18T04:23:24.715Z,42.87
2018-10-18T04:25:53.181Z,42.57
2018-10-18T04:28:21.358Z,44.83
2018-10-18T04:30:49.552Z,43.63
2018-10-18T04:33:17.748Z,46.43
2018-10-18T04:35:45.923Z,45.43
2018-10-18T04:38:14.100Z,42.67
2018-10-18T04:40:42.302Z,44.33
2018-10-18T04:43:10.462Z,42.07
2018-10-18T04:45:38.686Z,44.67
2018-10-18T04:48:07.379Z,40.97
2018-10-18T04:50:35.373Z,38.47
2018-10-18T04:53:03.546Z,37.57
2018-10-18T04:55:31.741Z,36.83
2018-10-18T04:58:00.071Z,38.50
2018-10-18T05:00:28.452Z,39.13
2018-10-18T05:02:57.023Z,40.33
2018-10-18T05:05:46.283Z,38.30
2018-10-18T05:08:14.577Z,35.50
2018-10-18T05:10:42.734Z,35.23
2018-10-18T05:13:10.994Z,36.10
2018-10-18T05:15:39.391Z,35.27
2018-10-18T05:18:08.331Z,34.80
2018-10-18T05:20:36.920Z,33.93
2018-10-18T05:23:05.593Z,31.03
2018-10-18T05:25:34.174Z,32.60
2018-10-18T05:28:02.508Z,29.90
2018-10-18T05:30:30.764Z,29.17
2018-10-18T05:32:58.982Z,31.13
2018-10-18T05:35:27.235Z,31.53
2018-10-18T05:37:55.477Z,32.43
2018-10-18T05:40:23.788Z,31.83
2018-10-18T05:42:52.003Z,31.13
2018-10-18T05:45:20.191Z,32.40
2018-10-18T05:47:48.464Z,31.57
2018-10-18T05:50:16.647Z,31.47
2018-10-18T05:52:44.860Z,27.47
2018-10-18T05:55:13.463Z,30.07
2018-10-18T05:57:42.095Z,31.77
2018-10-18T06:00:13.745Z,32.90
2018-10-18T06:02:42.140Z,30.83
2018-10-18T06:05:11.445Z,30.03
2018-10-18T06:07:39.755Z,30.07
2018-10-18T06:10:19.768Z,31.13
2018-10-18T06:12:48.175Z,31.07
2018-10-18T06:15:16.399Z,28.77
2018-10-18T06:17:44.679Z,31.70
2018-10-18T06:20:12.944Z,30.63
2018-10-18T06:22:42.022Z,29.13
2018-10-18T06:25:11.212Z,32.47
2018-10-18T06:27:39.395Z,31.90
2018-10-18T06:30:09.838Z,30.97
2018-10-18T06:32:38.153Z,34.33
2018-10-18T06:35:07.356Z,31.40
2018-10-18T06:37:35.988Z,35.43
2018-10-18T06:40:04.820Z,36.30
2018-10-18T06:42:33.011Z,35.87
2018-10-18T06:45:01.284Z,33.90
2018-10-18T06:47:29.637Z,37.20
2018-10-18T06:49:57.842Z,38.27
2018-10-18T06:52:25.957Z,40.90
2018-10-18T06:54:54.216Z,38.80
2018-10-18T06:57:22.349Z,36.47
2018-10-18T06:59:50.597Z,35.03
2018-10-18T07:02:18.814Z,36.17
2018-10-18T07:04:47.035Z,36.40
2018-10-18T07:07:15.282Z,34.37
2018-10-18T07:09:43.465Z,34.77
2018-10-18T07:12:11.845Z,33.83
2018-10-18T07:14:40.011Z,33.63
2018-10-18T07:17:08.363Z,32.57
2018-10-18T07:19:36.623Z,32.60
2018-10-18T07:22:04.856Z,32.53
2018-10-18T07:24:33.027Z,31.53
2018-10-18T07:27:01.497Z,33.30
2018-10-18T07:29:29.703Z,30.67
2018-10-18T07:31:57.941Z,30.17
2018-10-18T07:34:26.342Z,32.20
2018-10-18T07:36:54.541Z,32.53
2018-10-18T07:39:22.710Z,28.93
2018-10-18T07:41:50.966Z,31.17
2018-10-18T07:44:19.162Z,30.73
2018-10-18T07:46:47.479Z,32.47
2018-10-18T07:49:15.611Z,33.50
2018-10-18T07:51:43.790Z,34.57
2018-10-18T07:54:12.035Z,31.17
2018-10-18T07:56:40.204Z,32.37
2018-10-18T07:59:08.400Z,30.37
2018-10-18T08:01:36.679Z,31.60
2018-10-18T08:04:04.884Z,33.87
2018-10-18T08:06:33.102Z,32.10
2018-10-18T08:09:01.402Z,33.70
2018-10-18T08:11:29.604Z,34.73
2018-10-18T08:13:57.782Z,34.40
2018-10-18T08:16:26.312Z,36.03
2018-10-18T08:18:54.552Z,33.67
2018-10-18T08:21:23.006Z,34.27
2018-10-18T08:23:51.044Z,31.13
2018-10-18T08:26:19.246Z,30.83
2018-10-18T08:28:47.449Z,32.50
2018-10-18T08:31:15.733Z,33.83
2018-10-18T08:33:44.194Z,32.67
2018-10-18T08:36:12.442Z,34.60
2018-10-18T08:38:40.660Z,33.17
2018-10-18T08:41:08.847Z,32.33
2018-10-18T08:43:37.068Z,34.83
2018-10-18T08:46:05.291Z,32.40
2018-10-18T08:48:33.527Z,31.97
2018-10-18T08:51:01.699Z,31.73
2018-10-18T08:53:29.904Z,32.77
2018-10-18T08:55:58.119Z,31.50
2018-10-18T08:58:26.303Z,29.63
2018-10-18T09:00:55.451Z,31.33
2018-10-18T09:03:23.575Z,34.40
2018-10-18T09:05:51.787Z,31.97
2018-10-18T09:08:19.998Z,32.43
2018-10-18T09:10:48.287Z,29.30
2018-10-18T09:13:16.558Z,28.70
2018-10-18T09:15:44.695Z,27.50
2018-10-18T09:18:12.871Z,27.50
2018-10-18T09:20:41.065Z,29.13
2018-10-18T09:23:09.467Z,28.47
2018-10-18T09:25:37.692Z,24.40
2018-10-18T09:28:05.907Z,22.43
2018-10-18T09:30:34.071Z,26.73
2018-10-18T09:33:02.282Z,25.67
2018-10-18T09:35:30.496Z,27.77
2018-10-18T09:37:58.720Z,26.67
2018-10-18T09:40:26.924Z,30.27
2018-10-18T09:42:55.172Z,30.90
2018-10-18T09:45:23.317Z,30.63
2018-10-18T09:47:51.551Z,27.60
2018-10-18T09:50:19.750Z,31.60
2018-10-18T09:52:48.084Z,31.30
2018-10-18T09:55:16.351Z,31.57
2018-10-18T09:57:44.515Z,28.23
2018-10-18T10:00:18.004Z,27.07
2018-10-18T10:02:49.218Z,28.10
2018-10-18T10:05:17.620Z,28.03
2018-10-18T10:07:46.172Z,25.00
2018-10-18T10:10:14.344Z,28.17
2018-10-18T10:12:42.526Z,30.57
2018-10-18T10:15:10.827Z,30.40
2018-10-18T10:17:39.146Z,31.17
2018-10-18T10:20:07.447Z,24.40
2018-10-18T10:22:35.646Z,25.80
2018-10-18T10:25:04.034Z,25.57
2018-10-18T10:27:32.239Z,25.57
2018-10-18T10:30:00.451Z,29.73
2018-10-18T10:32:28.687Z,28.57
2018-10-18T10:34:56.962Z,26.63
2018-10-18T10:37:25.240Z,25.63
2018-10-18T10:39:53.443Z,23.47
2018-10-18T10:42:21.711Z,25.17
2018-10-18T10:44:49.994Z,23.07
2018-10-18T10:47:18.130Z,21.93
2018-10-18T10:49:46.307Z,24.10
2018-10-18T10:52:14.605Z,22.27
2018-10-18T10:54:42.744Z,22.67
2018-10-18T10:57:10.956Z,23.93
2018-10-18T10:59:39.150Z,21.87
2018-10-18T11:02:07.569Z,19.13
2018-10-18T11:04:35.631Z,18.57
2018-10-18T11:07:03.860Z,18.90
2018-10-18T11:09:32.108Z,17.40
2018-10-18T11:12:00.350Z,17.43
2018-10-18T11:14:28.436Z,19.33
2018-10-18T11:16:56.672Z,20.80
2018-10-18T11:19:24.834Z,18.77
2018-10-18T11:21:53.019Z,20.03
2018-10-18T11:24:21.327Z,19.13
2018-10-18T11:26:49.451Z,19.37
2018-10-18T11:29:17.646Z,19.37
2018-10-18T11:31:45.843Z,18.40
2018-10-18T11:34:14.186Z,16.97
2018-10-18T11:36:42.310Z,17.77
2018-10-18T11:39:10.967Z,17.10
2018-10-18T11:41:39.214Z,17.37
2018-10-18T11:44:07.670Z,18.37
2018-10-18T11:46:35.770Z,16.47
2018-10-18T11:49:03.959Z,19.33
2018-10-18T11:51:32.331Z,16.37
2018-10-18T11:54:00.359Z,15.90
2018-10-18T11:56:28.594Z,14.73
2018-10-18T11:58:56.839Z,16.43
2018-10-18T12:01:25.274Z,14.70
2018-10-18T12:03:53.420Z,18.60
2018-10-18T12:06:21.655Z,16.93
2018-10-18T12:08:49.915Z,15.53
2018-10-18T12:11:18.148Z,18.83
2018-10-18T12:13:46.265Z,17.23
2018-10-18T12:16:14.451Z,16.50
2018-10-18T12:18:42.651Z,15.67
2018-10-18T12:21:10.834Z,17.57
2018-10-18T12:23:39.253Z,14.70
2018-10-18T12:26:07.486Z,14.43
2018-10-18T12:28:35.655Z,15.93
2018-10-18T12:31:03.874Z,14.90
2018-10-18T12:33:32.139Z,15.47
2018-10-18T12:36:00.336Z,14.83
2018-10-18T12:38:28.503Z,11.70
2018-10-18T12:40:56.810Z,13.23
2018-10-18T12:43:24.905Z,12.27
2018-10-18T12:45:53.087Z,11.20
2018-10-18T12:48:21.410Z,10.60
2018-10-18T12:50:49.467Z,9.47
2018-10-18T12:53:17.666Z,8.30
2018-10-18T12:55:45.870Z,9.10
2018-10-18T12:58:14.043Z,9.17
2018-10-18T13:00:42.233Z,7.60
2018-10-18T13:03:10.412Z,7.57
2018-10-18T13:05:38.614Z,7.90
2018-10-18T13:08:06.865Z,7.63
2018-10-18T13:10:35.052Z,8.20
2018-10-18T13:13:03.235Z,7.30
2018-10-18T13:15:31.446Z,6.93
2018-10-18T13:17:59.673Z,6.40
2018-10-18T13:20:27.870Z,6.40
2018-10-18T13:22:56.071Z,7.43
2018-10-18T13:25:24.297Z,7.80
2018-10-18T13:27:52.443Z,9.13
2018-10-18T13:30:20.644Z,8.27
2018-10-18T13:32:48.823Z,8.10
2018-10-18T13:35:16.993Z,7.80
2018-10-18T13:37:48.104Z,8.63
2018-10-18T13:40:16.367Z,8.10
2018-10-18T13:42:44.586Z,7.23
2018-10-18T13:45:12.767Z,7.27
2018-10-18T13:47:41.014Z,8.33
2018-10-18T13:50:09.394Z,7.73
2018-10-18T13:52:37.620Z,7.03
2018-10-18T13:55:06.572Z,7.10
2018-10-18T13:57:34.795Z,7.70
2018-10-18T14:00:37.316Z,6.60
2018-10-18T14:03:05.570Z,6.00
2018-10-18T14:05:33.878Z,5.77
2018-10-18T14:08:02.098Z,5.23
2018-10-18T14:10:30.268Z,5.57
2018-10-18T14:12:58.472Z,5.33
2018-10-18T14:15:26.647Z,5.53
2018-10-18T14:17:55.071Z,5.13
2018-10-18T14:20:23.178Z,5.97
2018-10-18T14:22:51.372Z,5.30
2018-10-18T14:25:19.552Z,5.17
2018-10-18T14:27:47.739Z,4.60
2018-10-18T14:30:16.129Z,6.23
2018-10-18T14:32:44.189Z,4.93
2018-10-18T14:35:13.155Z,4.87
2018-10-18T14:37:41.400Z,5.17
2018-10-18T14:40:11.305Z,4.10
2018-10-18T14:42:39.527Z,3.93
2018-10-18T14:45:08.480Z,3.77
2018-10-18T14:47:36.738Z,3.77
2018-10-18T14:50:05.777Z,3.57
2018-10-18T14:52:33.882Z,3.50
2018-10-18T14:55:02.052Z,3.40
2018-10-18T14:57:30.307Z,3.97
2018-10-18T14:59:58.510Z,3.20
2018-10-18T15:02:26.756Z,3.93
2018-10-18T15:04:54.984Z,3.50
2018-10-18T15:07:23.427Z,3.50
2018-10-18T15:09:51.667Z,3.70
2018-10-18T15:12:23.517Z,3.20
2018-10-18T15:14:51.895Z,3.33
2018-10-18T15:17:25.548Z,3.10
2018-10-18T15:19:54.857Z,2.83
2018-10-18T15:22:23.031Z,3.27
2018-10-18T15:24:59.453Z,2.60
2018-10-18T15:27:28.056Z,3.07
2018-10-18T15:29:56.220Z,2.90
2018-10-18T15:32:24.490Z,2.93
2018-10-18T15:34:53.219Z,3.33
2018-10-18T15:37:23.190Z,3.97
2018-10-18T15:39:56.278Z,3.70
2018-10-18T15:42:25.968Z,3.83
2018-10-18T15:44:54.246Z,3.33
2018-10-18T15:47:22.625Z,3.30
2018-10-18T15:49:53.233Z,3.40
2018-10-18T15:52:21.607Z,3.87
2018-10-18T15:54:50.359Z,4.40
2018-10-18T15:57:18.696Z,3.93
2018-10-18T15:59:46.963Z,3.57
2018-10-18T16:02:15.143Z,3.43
2018-10-18T16:04:43.710Z,3.27
2018-10-18T16:07:11.958Z,3.23
2018-10-18T16:09:40.138Z,3.30
2018-10-18T16:12:08.455Z,3.23
2018-10-18T16:14:36.624Z,3.30
2018-10-18T16:17:05.008Z,3.30
2018-10-18T16:19:35.640Z,3.70
2018-10-18T16:22:04.111Z,4.27
2018-10-18T16:24:32.723Z,4.07
2018-10-18T16:27:00.924Z,4.13
2018-10-18T16:29:29.135Z,3.90
2018-10-18T16:31:57.368Z,4.47
2018-10-18T16:34:25.524Z,4.10
2018-10-18T16:36:53.719Z,4.60
2018-10-18T16:39:21.988Z,4.60
2018-10-18T16:41:50.340Z,4.37
2018-10-18T16:44:18.650Z,4.50
2018-10-18T16:46:46.729Z,4.67
2018-10-18T16:49:14.945Z,4.73
2018-10-18T16:51:43.162Z,4.37
2018-10-18T16:54:11.501Z,4.10
2018-10-18T16:56:39.574Z,4.70
2018-10-18T16:59:07.774Z,4.37
2018-10-18T17:01:36.301Z,4.50
2018-10-18T17:04:04.769Z,3.93
2018-10-18T17:06:41.511Z,3.97
2018-10-18T17:09:12.223Z,3.80
2018-10-18T17:11:43.606Z,3.43
2018-10-18T17:14:11.815Z,3.23
2018-10-18T17:16:40.010Z,2.80
2018-10-18T17:19:08.342Z,2.53
2018-10-18T17:21:36.504Z,2.10
2018-10-18T17:24:04.972Z,2.53
2018-10-18T17:26:33.441Z,2.33
2018-10-18T17:29:01.552Z,2.40
2018-10-18T17:31:29.738Z,2.17
2018-10-18T17:33:58.063Z,2.40
2018-10-18T17:36:26.441Z,2.43
2018-10-18T17:38:54.721Z,2.73
2018-10-18T17:41:22.936Z,3.10
2018-10-18T17:43:51.215Z,3.40
2018-10-18T17:46:20.165Z,3.60
2018-10-18T17:48:48.355Z,3.77
2018-10-18T17:51:16.659Z,3.70
2018-10-18T17:53:46.021Z,3.67
2018-10-18T17:56:14.295Z,4.73
2018-10-18T17:58:42.447Z,4.27
2018-10-18T18:01:13.952Z,4.00
2018-10-18T18:03:42.094Z,3.77
2018-10-18T18:06:10.509Z,4.57
2018-10-18T18:08:38.518Z,3.77
2018-10-18T18:11:06.720Z,4.53
2018-10-18T18:13:35.143Z,4.57
2018-10-18T18:16:03.445Z,4.87
2018-10-18T18:18:31.575Z,4.50
2018-10-18T18:21:00.363Z,4.47
2018-10-18T18:23:28.587Z,5.03
2018-10-18T18:25:56.842Z,5.20
2018-10-18T18:28:25.117Z,5.77
2018-10-18T18:30:54.413Z,5.70
2018-10-18T18:33:22.599Z,5.83
2018-10-18T18:35:50.815Z,6.60
2018-10-18T18:38:19.127Z,6.60
2018-10-18T18:40:47.336Z,7.93
2018-10-18T18:43:15.676Z,7.10
2018-10-18T18:45:44.047Z,7.87
2018-10-18T18:48:12.348Z,8.37
2018-10-18T18:50:40.588Z,8.03
2018-10-18T18:53:08.972Z,9.63
2018-10-18T18:55:37.412Z,10.73
2018-10-18T18:58:06.126Z,11.20
2018-10-18T19:00:34.334Z,11.50
2018-10-18T19:03:02.533Z,10.60
2018-10-18T19:05:31.041Z,12.03
2018-10-18T19:07:59.239Z,12.30
2018-10-18T19:10:27.638Z,11.43
2018-10-18T19:12:56.192Z,12.33
2018-10-18T19:15:24.763Z,13.20
2018-10-18T19:17:53.115Z,12.83
2018-10-18T19:20:21.788Z,13.33
2018-10-18T19:22:50.070Z,11.93
2018-10-18T19:25:18.127Z,12.47
2018-10-18T19:27:46.450Z,12.37
2018-10-18T19:30:14.677Z,12.70
2018-10-18T19:32:42.856Z,13.97
2018-10-18T19:35:11.043Z,14.03
2018-10-18T19:37:39.240Z,13.20
2018-10-18T19:40:08.115Z,12.50
2018-10-18T19:42:37.215Z,14.47
2018-10-18T19:45:06.467Z,13.60
2018-10-18T19:47:36.512Z,14.17
2018-10-18T19:50:05.534Z,13.83
2018-10-18T19:52:33.872Z,15.63
2018-10-18T19:55:01.972Z,13.90
2018-10-18T19:57:30.182Z,15.00
2018-10-18T19:59:58.461Z,14.40
2018-10-18T20:02:26.677Z,14.37
2018-10-18T20:04:54.929Z,13.77
2018-10-18T20:07:23.099Z,13.47
2018-10-18T20:09:51.416Z,14.07
2018-10-18T20:12:19.591Z,12.90
2018-10-18T20:14:47.791Z,14.10
2018-10-18T20:17:15.979Z,13.47
2018-10-18T20:19:44.251Z,12.60
2018-10-18T20:22:13.547Z,12.70
2018-10-18T20:24:42.101Z,11.23
2018-10-18T20:27:10.890Z,12.83
2018-10-18T20:29:42.437Z,12.47
2018-10-18T20:32:10.689Z,11.67
2018-10-18T20:34:38.815Z,10.73
2018-10-18T20:37:06.988Z,12.20
2018-10-18T20:39:35.221Z,10.80
2018-10-18T20:42:03.380Z,11.77
2018-10-18T20:44:39.135Z,11.50
2018-10-18T20:47:07.468Z,10.40
2018-10-18T20:49:35.495Z,10.87
2018-10-18T20:52:03.702Z,11.97
2018-10-18T20:54:31.875Z,12.73
2018-10-18T20:57:00.049Z,11.07
2018-10-18T20:59:28.247Z,11.73
2018-10-18T21:01:56.731Z,10.60
2018-10-18T21:04:24.946Z,11.80
2018-10-18T21:06:53.134Z,11.77
2018-10-18T21:09:21.309Z,11.63
2018-10-18T21:11:49.504Z,12.17
2018-10-18T21:14:17.731Z,12.17
2018-10-18T21:16:45.967Z,11.87
2018-10-18T21:19:14.226Z,12.63
2018-10-18T21:21:42.517Z,13.03
2018-10-18T21:24:10.632Z,12.27
2018-10-18T21:26:38.815Z,12.80
2018-10-18T21:29:07.056Z,12.77
2018-10-18T21:31:35.215Z,13.70
2018-10-18T21:34:05.752Z,13.17
2018-10-18T21:36:34.151Z,13.43
2018-10-18T21:39:08.963Z,14.13
2018-10-18T21:41:37.587Z,13.70
2018-10-18T21:44:05.856Z,13.97
2018-10-18T21:46:34.328Z,14.63
2018-10-18T21:49:02.759Z,15.40
2018-10-18T21:51:31.407Z,14.53
2018-10-18T21:53:59.815Z,17.27
2018-10-18T21:56:28.008Z,15.27
2018-10-18T21:58:56.480Z,15.53
2018-10-18T22:01:24.744Z,15.53
2018-10-18T22:03:52.955Z,15.23
2018-10-18T22:06:21.103Z,14.20
2018-10-18T22:08:49.251Z,13.53
2018-10-18T22:11:17.408Z,13.60
2018-10-18T22:13:46.017Z,12.93
2018-10-18T22:16:14.443Z,12.70
2018-10-18T22:18:42.656Z,11.00
2018-10-18T22:21:10.917Z,11.83
2018-10-18T22:23:39.057Z,10.50
2018-10-18T22:26:07.214Z,10.77
2018-10-18T22:28:35.511Z,10.23
2018-10-18T22:31:04.049Z,10.77
2018-10-18T22:33:32.542Z,10.20
2018-10-18T22:36:00.884Z,10.20
2018-10-18T22:38:29.201Z,9.80
2018-10-18T22:40:57.541Z,9.40
2018-10-18T22:43:25.821Z,10.33
2018-10-18T22:45:59.211Z,9.50
2018-10-18T22:48:27.941Z,10.67
2018-10-18T22:50:56.734Z,8.80
2018-10-18T22:53:25.176Z,8.90
2018-10-18T22:55:54.051Z,9.23
2018-10-18T22:58:22.396Z,9.37
2018-10-18T23:00:50.918Z,8.83
2018-10-18T23:03:20.352Z,9.33
2018-10-18T23:05:49.154Z,8.03
2018-10-18T23:08:17.432Z,9.23
2018-10-18T23:10:47.941Z,8.07
2018-10-18T23:13:16.433Z,8.70
2018-10-18T23:15:44.803Z,8.47
2018-10-18T23:18:13.228Z,9.10
2018-10-18T23:20:42.203Z,10.43
2018-10-18T23:23:11.066Z,9.20
2018-10-18T23:25:39.747Z,8.67
2018-10-18T23:28:08.322Z,9.90
2018-10-18T23:30:36.511Z,9.20
2018-10-18T23:33:04.778Z,8.97
2018-10-18T23:35:32.956Z,9.17
2018-10-18T23:38:01.224Z,10.43
2018-10-18T23:40:29.421Z,11.07
2018-10-18T23:46:09.968Z,10.30
2018-10-18T23:48:38.225Z,11.23
2018-10-18T23:51:06.413Z,9.53
2018-10-18T23:53:34.603Z,10.87
2018-10-18T23:56:02.832Z,10.50
2018-10-18T23:58:31.059Z,9.93
